FMEP

Pierrefonds Airport

St Pierre, Reunion
METAR FMEP 170000Z AUTO 04005KT 010V130 CAVOK 23/10 Q1015
Observed Flight Rules
Dec-17 @ 00:00 UTC (23 minutes ago) Visual Flight Rules
Wind Visibility Clouds
40° at 5 knots 10,000+ meters
  • Clear skies
Temperatures Readings
Current 23°C / 73°F
Dewpoint 10°C / 50°F
Humidity 44%
Altimeter 29.97" Hg
Pressure 1015 hPa
Elevation 18
METAR FMEP 170000Z AUTO 04005KT 010V130 CAVOK 23/10 Q1015
Observed Flight Rules
Dec-17 @ 00:00 UTC
(23 minutes ago)
VFR
Wind Visibility
40° at 5 knots 10,000+ meters
Clouds
  • Clear skies
Temperature Dewpoint
23°C / 73°F 10°C / 50°F
Humidity Altimeter Pressure
44% 29.97" Hg 1015 hPa